Bookmark and Share
Track history (hours):
 

Seneimaru

Last reported at 2014-Apr-21 14:32 UTC. Time now 2014-Apr-21 15:19 UTC.
Position N 35°23' E 139°45'.

Length 72 m; draft 5.9 m.

Type: Cargo ship. MMSI: 431100477.

NotesDate/timePositionNaut miles runAvg speedWind from/ knotsBaromVisibWave heightAir tempDewpointWater temp
2014-Apr-21 14:32N 35°23' E 139°45'0 0.0
2014-Apr-21 13:32N 35°24' E 139°45'0 0.1
2014-Apr-21 12:32N 35°24' E 139°45'0 0.0
2014-Apr-21 11:32N 35°24' E 139°45'0 0.0
2014-Apr-21 10:32N 35°24' E 139°45'0 0.0
2014-Apr-21 09:32N 35°24' E 139°45'0 0.0
2014-Apr-21 08:32N 35°24' E 139°45'0 0.0
2014-Apr-21 07:32N 35°24' E 139°45'0 0.0
2014-Apr-21 06:29N 35°24' E 139°45'0 0.1
2014-Apr-21 05:32N 35°24' E 139°45'0 0.0
2014-Apr-21 04:32N 35°24' E 139°45'0 0.1
2014-Apr-21 03:32N 35°24' E 139°45'0 0.1
2014-Apr-21 02:32N 35°24' E 139°45'0 0.0
2014-Apr-21 01:32N 35°23' E 139°45'0 0.0
2014-Apr-21 00:32N 35°24' E 139°45'0 0.1
2014-Apr-20 23:32N 35°23' E 139°45'0 0.0
2014-Apr-20 22:32N 35°23' E 139°45'0 0.0
2014-Apr-20 21:32N 35°23' E 139°45'0 0.1
2014-Apr-20 20:32N 35°24' E 139°45'0 0.0
2014-Apr-20 19:32N 35°24' E 139°45'5 5.1
2014-Apr-20 18:33N 35°19' E 139°44'1111.4
2014-Apr-20 17:33N 35°07' E 139°46'1311.5
2014-Apr-20 16:25N 34°54' E 139°46'4 0.1
2014-Apr-19 09:29N 34°51' E 139°48'9 9.8
2014-Apr-19 08:33N 34°59' E 139°43'1111.4
2014-Apr-19 07:33N 35°10' E 139°45'1010.2
2014-Apr-19 06:33N 35°20' E 139°43'1110.7
2014-Apr-19 05:34N 35°30' E 139°48'4 3.9
2014-Apr-19 04:33N 35°30' E 139°43'0 0.0
2014-Apr-19 03:33N 35°30' E 139°43'0 0.0
2014-Apr-19 02:33N 35°30' E 139°43'0 0.0
2014-Apr-19 01:33N 35°30' E 139°43'0 0.0
2014-Apr-19 00:33N 35°30' E 139°43'0 0.0
2014-Apr-18 23:33N 35°30' E 139°43'2 2.1
2014-Apr-18 22:33N 35°28' E 139°42'6 6.5
2014-Apr-18 21:33N 35°22' E 139°45'1010.3
2014-Apr-18 20:33N 35°12' E 139°47'1111.1
2014-Apr-18 19:34N 35°01' E 139°44'12 0.4
2014-Apr-17 10:32N 34°50' E 139°48'1010.5
2014-Apr-17 09:34N 34°59' E 139°43'1110.9
2014-Apr-17 08:34N 35°10' E 139°46'10 9.8
2014-Apr-17 07:33N 35°20' E 139°43'10 9.8
2014-Apr-17 06:33N 35°29' E 139°47'4 3.8
2014-Apr-17 05:33N 35°30' E 139°43'0 0.0
2014-Apr-17 04:33N 35°30' E 139°43'0 0.0
2014-Apr-17 03:33N 35°30' E 139°43'0 0.0
2014-Apr-17 02:33N 35°30' E 139°43'0 0.0
2014-Apr-17 01:33N 35°30' E 139°43'0 0.0
2014-Apr-17 00:33N 35°30' E 139°43'0 0.0
2014-Apr-16 23:34N 35°30' E 139°43'3 3.2
2014-Apr-16 22:27N 35°27' E 139°44'5 5.2
2014-Apr-16 21:33N 35°22' E 139°45'1010.1
2014-Apr-16 20:33N 35°12' E 139°47'1111.5
2014-Apr-16 19:33N 35°01' E 139°44'9 0.3
2014-Apr-15 10:33N 34°52' E 139°47'10 9.8
2014-Apr-15 09:34N 35°01' E 139°44'9 9.2
2014-Apr-15 08:34N 35°10' E 139°46'10 9.9
2014-Apr-15 07:34N 35°20' E 139°43'10 9.6
2014-Apr-15 06:34N 35°29' E 139°47'4 3.9
2014-Apr-15 05:34N 35°30' E 139°43'0 0.0
2014-Apr-15 03:34N 35°30' E 139°43'0 0.0
2014-Apr-15 02:34N 35°30' E 139°43'0 0.0
2014-Apr-15 01:34N 35°30' E 139°43'0 0.0
2014-Apr-15 00:34N 35°30' E 139°43'0 0.0
2014-Apr-14 23:34N 35°30' E 139°43'0 0.0
2014-Apr-14 22:34N 35°30' E 139°43'0 0.0
2014-Apr-14 21:34N 35°30' E 139°43'0 0.0
2014-Apr-14 20:34N 35°30' E 139°43'0 0.0
2014-Apr-14 19:34N 35°30' E 139°43'0 0.0
2014-Apr-14 18:34N 35°30' E 139°43'0 0.0
2014-Apr-14 17:34N 35°30' E 139°43'0 0.0
2014-Apr-14 16:34N 35°30' E 139°43'0 0.0
2014-Apr-14 15:34N 35°30' E 139°43'0 0.0
2014-Apr-14 14:34N 35°30' E 139°43'0 0.0
2014-Apr-14 13:34N 35°30' E 139°43'0 0.0
2014-Apr-14 11:33N 35°30' E 139°43'0 0.0
2014-Apr-14 10:33N 35°30' E 139°43'0 0.0
2014-Apr-14 09:33N 35°30' E 139°43'0 0.0
2014-Apr-14 08:33N 35°30' E 139°43'0 0.0
2014-Apr-14 07:33N 35°30' E 139°43'4 4.3
2014-Apr-14 06:34N 35°26' E 139°44'2 2.4
2014-Apr-14 05:32N 35°24' E 139°44'0 0.0
2014-Apr-13 22:32N 35°24' E 139°44'0 0.0
2014-Apr-13 21:32N 35°24' E 139°44'0 0.0
2014-Apr-13 20:32N 35°23' E 139°44'0 0.0
2014-Apr-13 19:32N 35°23' E 139°44'0 0.0
2014-Apr-13 18:32N 35°23' E 139°44'6 6.0
2014-Apr-13 17:33N 35°18' E 139°45'1211.7
2014-Apr-13 16:33N 35°06' E 139°46'1212.0
2014-Apr-13 15:33N 34°54' E 139°45'5 0.2
2014-Apr-12 10:18N 34°50' E 139°48'911.7
2014-Apr-12 09:34N 34°57' E 139°43'1110.9
2014-Apr-12 08:33N 35°08' E 139°45'1111.2
2014-Apr-12 07:33N 35°19' E 139°43'1010.3
2014-Apr-12 06:34N 35°29' E 139°47'4 3.9
2014-Apr-12 05:34N 35°30' E 139°43'0 0.0
2014-Apr-12 04:33N 35°30' E 139°43'0 0.0
2014-Apr-12 03:33N 35°30' E 139°43'0 0.0
2014-Apr-12 02:34N 35°30' E 139°43'0 0.0
2014-Apr-12 01:33N 35°30' E 139°43'0 0.0
2014-Apr-12 00:33N 35°30' E 139°43'0 0.0
2014-Apr-11 23:33N 35°30' E 139°43'0 0.0
2014-Apr-11 22:34N 35°30' E 139°43'4 3.7
2014-Apr-11 21:33N 35°27' E 139°44'8 8.2
2014-Apr-11 20:33N 35°18' E 139°44'1110.7
2014-Apr-11 19:32N 35°08' E 139°46'1111.6
2014-Apr-11 18:33N 34°56' E 139°45'  

Dump ship's entire track history

sailing weather and tide predictions

Seneimaru — JG5357 — position and weather